sensor_id;sensor_type;location;lat;lon;timestamp;temperature;humidity
19999;DHT22;10160;50.926;4.374;2024-03-22T00:00:21;13.40;99.90
19999;DHT22;10160;50.926;4.374;2024-03-22T00:02:46;13.30;99.90
19999;DHT22;10160;50.926;4.374;2024-03-22T00:05:12;13.30;99.90
19999;DHT22;10160;50.926;4.374;2024-03-22T00:07:38;13.30;99.90
19999;DHT22;10160;50.926;4.374;2024-03-22T00:10:05;13.30;99.90
19999;DHT22;10160;50.926;4.374;2024-03-22T00:12:31;13.30;99.90
19999;DHT22;10160;50.926;4.374;2024-03-22T00:14:56;13.30;99.90
19999;DHT22;10160;50.926;4.374;2024-03-22T00:17:22;13.40;99.90
19999;DHT22;10160;50.926;4.374;2024-03-22T00:19:48;13.40;99.90
19999;DHT22;10160;50.926;4.374;2024-03-22T00:22:13;13.40;99.90
19999;DHT22;10160;50.926;4.374;2024-03-22T00:24:40;13.30;99.90
19999;DHT22;10160;50.926;4.374;2024-03-22T00:27:05;13.40;99.90
19999;DHT22;10160;50.926;4.374;2024-03-22T00:29:31;13.30;99.90
19999;DHT22;10160;50.926;4.374;2024-03-22T00:31:56;13.30;99.90
19999;DHT22;10160;50.926;4.374;2024-03-22T00:34:22;13.30;99.90
19999;DHT22;10160;50.926;4.374;2024-03-22T00:36:48;13.40;99.90
19999;DHT22;10160;50.926;4.374;2024-03-22T00:39:13;13.30;99.90
19999;DHT22;10160;50.926;4.374;2024-03-22T00:41:39;13.40;99.90
19999;DHT22;10160;50.926;4.374;2024-03-22T00:44:04;13.30;99.90
19999;DHT22;10160;50.926;4.374;2024-03-22T00:46:30;13.30;99.90
19999;DHT22;10160;50.926;4.374;2024-03-22T00:48:56;13.40;99.90
19999;DHT22;10160;50.926;4.374;2024-03-22T00:51:22;13.40;99.90
19999;DHT22;10160;50.926;4.374;2024-03-22T00:53:47;13.30;99.90
19999;DHT22;10160;50.926;4.374;2024-03-22T00:56:13;13.20;99.90
19999;DHT22;10160;50.926;4.374;2024-03-22T00:58:39;13.20;99.90
19999;DHT22;10160;50.926;4.374;2024-03-22T01:01:04;13.20;99.90
19999;DHT22;10160;50.926;4.374;2024-03-22T01:03:30;13.20;99.90
19999;DHT22;10160;50.926;4.374;2024-03-22T01:05:55;13.20;99.90
19999;DHT22;10160;50.926;4.374;2024-03-22T01:08:22;13.30;99.90
19999;DHT22;10160;50.926;4.374;2024-03-22T01:10:48;13.20;99.90
19999;DHT22;10160;50.926;4.374;2024-03-22T01:13:14;13.00;99.90
19999;DHT22;10160;50.926;4.374;2024-03-22T01:15:39;13.00;99.90
19999;DHT22;10160;50.926;4.374;2024-03-22T01:18:05;13.00;99.90
19999;DHT22;10160;50.926;4.374;2024-03-22T01:20:30;13.10;99.90
19999;DHT22;10160;50.926;4.374;2024-03-22T01:22:56;13.00;99.90
19999;DHT22;10160;50.926;4.374;2024-03-22T01:25:22;12.90;99.90
19999;DHT22;10160;50.926;4.374;2024-03-22T01:27:47;12.90;99.90
19999;DHT22;10160;50.926;4.374;2024-03-22T01:30:13;12.90;99.90
19999;DHT22;10160;50.926;4.374;2024-03-22T01:32:39;12.90;99.90
19999;DHT22;10160;50.926;4.374;2024-03-22T01:35:04;12.70;99.90
19999;DHT22;10160;50.926;4.374;2024-03-22T01:37:30;12.70;99.90
19999;DHT22;10160;50.926;4.374;2024-03-22T01:39:56;12.70;99.90
19999;DHT22;10160;50.926;4.374;2024-03-22T01:42:21;12.70;99.90
19999;DHT22;10160;50.926;4.374;2024-03-22T01:44:49;12.70;99.90
19999;DHT22;10160;50.926;4.374;2024-03-22T01:47:15;12.70;99.90
19999;DHT22;10160;50.926;4.374;2024-03-22T01:49:41;12.60;99.90
19999;DHT22;10160;50.926;4.374;2024-03-22T01:52:06;12.60;99.90
19999;DHT22;10160;50.926;4.374;2024-03-22T01:54:32;12.50;99.90
19999;DHT22;10160;50.926;4.374;2024-03-22T01:56:58;12.60;99.90
19999;DHT22;10160;50.926;4.374;2024-03-22T01:59:24;12.50;99.90
19999;DHT22;10160;50.926;4.374;2024-03-22T02:01:51;12.40;99.90
19999;DHT22;10160;50.926;4.374;2024-03-22T02:04:17;12.50;99.90
19999;DHT22;10160;50.926;4.374;2024-03-22T02:06:42;12.40;99.90
19999;DHT22;10160;50.926;4.374;2024-03-22T02:09:08;12.40;99.90
19999;DHT22;10160;50.926;4.374;2024-03-22T02:11:37;12.40;99.90
19999;DHT22;10160;50.926;4.374;2024-03-22T02:14:03;12.30;99.90
19999;DHT22;10160;50.926;4.374;2024-03-22T02:16:29;12.30;99.90
19999;DHT22;10160;50.926;4.374;2024-03-22T02:18:55;12.30;99.90
19999;DHT22;10160;50.926;4.374;2024-03-22T02:21:21;12.30;99.90
19999;DHT22;10160;50.926;4.374;2024-03-22T02:23:46;12.30;99.90
19999;DHT22;10160;50.926;4.374;2024-03-22T02:26:12;12.30;99.90
19999;DHT22;10160;50.926;4.374;2024-03-22T02:28:37;12.30;99.90
19999;DHT22;10160;50.926;4.374;2024-03-22T02:31:03;12.30;99.90
19999;DHT22;10160;50.926;4.374;2024-03-22T02:33:29;12.40;99.90
19999;DHT22;10160;50.926;4.374;2024-03-22T02:35:55;12.40;99.90
19999;DHT22;10160;50.926;4.374;2024-03-22T02:38:20;12.40;99.90
19999;DHT22;10160;50.926;4.374;2024-03-22T02:40:47;12.40;99.90
19999;DHT22;10160;50.926;4.374;2024-03-22T02:43:13;12.30;99.90
19999;DHT22;10160;50.926;4.374;2024-03-22T02:45:39;12.40;99.90
19999;DHT22;10160;50.926;4.374;2024-03-22T02:48:06;12.40;99.90
19999;DHT22;10160;50.926;4.374;2024-03-22T02:50:35;12.40;99.90
19999;DHT22;10160;50.926;4.374;2024-03-22T02:53:02;12.40;99.90
19999;DHT22;10160;50.926;4.374;2024-03-22T02:55:28;12.30;99.90
19999;DHT22;10160;50.926;4.374;2024-03-22T02:57:55;12.40;99.90
19999;DHT22;10160;50.926;4.374;2024-03-22T03:00:21;12.40;99.90
19999;DHT22;10160;50.926;4.374;2024-03-22T03:02:46;12.40;99.90
19999;DHT22;10160;50.926;4.374;2024-03-22T03:05:12;12.40;99.90
19999;DHT22;10160;50.926;4.374;2024-03-22T03:07:38;12.30;99.90
19999;DHT22;10160;50.926;4.374;2024-03-22T03:10:04;12.30;99.90
19999;DHT22;10160;50.926;4.374;2024-03-22T03:12:29;12.20;99.90
19999;DHT22;10160;50.926;4.374;2024-03-22T03:14:55;12.20;99.90
19999;DHT22;10160;50.926;4.374;2024-03-22T03:17:20;12.20;99.90
19999;DHT22;10160;50.926;4.374;2024-03-22T03:19:46;12.20;99.90
19999;DHT22;10160;50.926;4.374;2024-03-22T03:22:12;12.20;99.90
19999;DHT22;10160;50.926;4.374;2024-03-22T03:24:37;12.20;99.90
19999;DHT22;10160;50.926;4.374;2024-03-22T03:27:03;12.20;99.90
19999;DHT22;10160;50.926;4.374;2024-03-22T03:29:29;12.20;99.90
19999;DHT22;10160;50.926;4.374;2024-03-22T03:31:54;12.30;99.90
19999;DHT22;10160;50.926;4.374;2024-03-22T03:34:20;12.20;99.90
19999;DHT22;10160;50.926;4.374;2024-03-22T03:36:46;12.20;99.90
19999;DHT22;10160;50.926;4.374;2024-03-22T03:39:11;12.10;99.90
19999;DHT22;10160;50.926;4.374;2024-03-22T03:41:37;12.10;99.90
19999;DHT22;10160;50.926;4.374;2024-03-22T03:44:03;12.10;99.90
19999;DHT22;10160;50.926;4.374;2024-03-22T03:46:28;12.10;99.90
19999;DHT22;10160;50.926;4.374;2024-03-22T03:48:54;12.00;99.90
19999;DHT22;10160;50.926;4.374;2024-03-22T03:51:19;11.90;99.90
19999;DHT22;10160;50.926;4.374;2024-03-22T03:53:45;12.00;99.90
19999;DHT22;10160;50.926;4.374;2024-03-22T03:56:11;11.90;99.90
19999;DHT22;10160;50.926;4.374;2024-03-22T03:58:36;11.80;99.90
19999;DHT22;10160;50.926;4.374;2024-03-22T04:01:08;12.00;99.90
19999;DHT22;10160;50.926;4.374;2024-03-22T04:03:34;12.00;99.90
19999;DHT22;10160;50.926;4.374;2024-03-22T04:06:00;12.00;99.90
19999;DHT22;10160;50.926;4.374;2024-03-22T04:08:26;11.90;99.90
19999;DHT22;10160;50.926;4.374;2024-03-22T04:10:55;11.80;99.90
19999;DHT22;10160;50.926;4.374;2024-03-22T04:13:25;11.80;99.90
19999;DHT22;10160;50.926;4.374;2024-03-22T04:15:51;11.80;99.90
19999;DHT22;10160;50.926;4.374;2024-03-22T04:18:16;11.90;99.90
19999;DHT22;10160;50.926;4.374;2024-03-22T04:20:42;11.90;99.90
19999;DHT22;10160;50.926;4.374;2024-03-22T04:23:09;11.90;99.90
19999;DHT22;10160;50.926;4.374;2024-03-22T04:25:35;11.90;99.90
19999;DHT22;10160;50.926;4.374;2024-03-22T04:28:00;11.90;99.90
19999;DHT22;10160;50.926;4.374;2024-03-22T04:30:26;11.90;99.90
19999;DHT22;10160;50.926;4.374;2024-03-22T04:32:52;11.90;99.90
19999;DHT22;10160;50.926;4.374;2024-03-22T04:35:17;11.90;99.90
19999;DHT22;10160;50.926;4.374;2024-03-22T04:37:43;11.80;99.90
19999;DHT22;10160;50.926;4.374;2024-03-22T04:40:09;11.80;99.90
19999;DHT22;10160;50.926;4.374;2024-03-22T04:42:35;11.80;99.90
19999;DHT22;10160;50.926;4.374;2024-03-22T04:45:01;11.80;99.90
19999;DHT22;10160;50.926;4.374;2024-03-22T04:47:26;11.80;99.90
19999;DHT22;10160;50.926;4.374;2024-03-22T04:49:52;11.80;99.90
19999;DHT22;10160;50.926;4.374;2024-03-22T04:52:18;11.80;99.90
19999;DHT22;10160;50.926;4.374;2024-03-22T04:54:43;11.80;99.90
19999;DHT22;10160;50.926;4.374;2024-03-22T04:57:09;11.80;99.90
19999;DHT22;10160;50.926;4.374;2024-03-22T04:59:34;11.80;99.90
19999;DHT22;10160;50.926;4.374;2024-03-22T05:02:00;11.80;99.90
19999;DHT22;10160;50.926;4.374;2024-03-22T05:04:26;11.70;99.90
19999;DHT22;10160;50.926;4.374;2024-03-22T05:06:51;11.60;99.90
19999;DHT22;10160;50.926;4.374;2024-03-22T05:09:17;11.60;99.90
19999;DHT22;10160;50.926;4.374;2024-03-22T05:11:42;11.60;99.90
19999;DHT22;10160;50.926;4.374;2024-03-22T05:14:08;11.50;99.90
19999;DHT22;10160;50.926;4.374;2024-03-22T05:16:34;11.40;99.90
19999;DHT22;10160;50.926;4.374;2024-03-22T05:18:59;11.40;99.90
19999;DHT22;10160;50.926;4.374;2024-03-22T05:21:25;11.40;99.90
19999;DHT22;10160;50.926;4.374;2024-03-22T05:23:50;11.30;99.90
19999;DHT22;10160;50.926;4.374;2024-03-22T05:26:16;11.40;99.90
19999;DHT22;10160;50.926;4.374;2024-03-22T05:28:43;11.40;99.90
19999;DHT22;10160;50.926;4.374;2024-03-22T05:31:09;11.50;99.90
19999;DHT22;10160;50.926;4.374;2024-03-22T05:33:35;11.50;99.90
19999;DHT22;10160;50.926;4.374;2024-03-22T05:36:00;11.50;99.90
19999;DHT22;10160;50.926;4.374;2024-03-22T05:38:26;11.50;99.90
19999;DHT22;10160;50.926;4.374;2024-03-22T05:40:51;11.50;99.90
19999;DHT22;10160;50.926;4.374;2024-03-22T05:43:17;11.60;99.90
19999;DHT22;10160;50.926;4.374;2024-03-22T05:45:42;11.60;99.90
19999;DHT22;10160;50.926;4.374;2024-03-22T05:48:08;11.60;99.90
19999;DHT22;10160;50.926;4.374;2024-03-22T05:50:34;11.70;99.90
19999;DHT22;10160;50.926;4.374;2024-03-22T05:52:59;11.60;99.90
19999;DHT22;10160;50.926;4.374;2024-03-22T05:55:25;11.60;99.90
19999;DHT22;10160;50.926;4.374;2024-03-22T05:57:52;11.50;99.90
19999;DHT22;10160;50.926;4.374;2024-03-22T06:00:18;11.60;99.90
19999;DHT22;10160;50.926;4.374;2024-03-22T06:02:44;11.50;99.90
19999;DHT22;10160;50.926;4.374;2024-03-22T06:05:09;11.50;99.90
19999;DHT22;10160;50.926;4.374;2024-03-22T06:07:35;11.50;99.90
19999;DHT22;10160;50.926;4.374;2024-03-22T06:10:08;11.40;99.90
19999;DHT22;10160;50.926;4.374;2024-03-22T06:12:35;11.40;99.90
19999;DHT22;10160;50.926;4.374;2024-03-22T06:15:01;11.40;99.90
19999;DHT22;10160;50.926;4.374;2024-03-22T06:17:26;11.40;99.90
19999;DHT22;10160;50.926;4.374;2024-03-22T06:19:52;11.40;99.90
19999;DHT22;10160;50.926;4.374;2024-03-22T06:22:17;11.30;99.90
19999;DHT22;10160;50.926;4.374;2024-03-22T06:24:44;11.30;99.90
19999;DHT22;10160;50.926;4.374;2024-03-22T06:27:10;11.30;99.90
19999;DHT22;10160;50.926;4.374;2024-03-22T06:29:36;11.20;99.90
19999;DHT22;10160;50.926;4.374;2024-03-22T06:32:01;11.20;99.90
19999;DHT22;10160;50.926;4.374;2024-03-22T06:34:27;11.20;99.90
19999;DHT22;10160;50.926;4.374;2024-03-22T06:36:52;11.10;99.90
19999;DHT22;10160;50.926;4.374;2024-03-22T06:39:18;11.20;99.90
19999;DHT22;10160;50.926;4.374;2024-03-22T06:41:45;11.10;99.90
19999;DHT22;10160;50.926;4.374;2024-03-22T06:44:10;11.10;99.90
19999;DHT22;10160;50.926;4.374;2024-03-22T06:46:37;11.00;99.90
19999;DHT22;10160;50.926;4.374;2024-03-22T06:49:03;11.10;99.90
19999;DHT22;10160;50.926;4.374;2024-03-22T06:51:29;11.10;99.90
19999;DHT22;10160;50.926;4.374;2024-03-22T06:53:54;11.20;99.90
19999;DHT22;10160;50.926;4.374;2024-03-22T06:56:20;11.20;99.90
19999;DHT22;10160;50.926;4.374;2024-03-22T06:58:46;11.20;99.90
19999;DHT22;10160;50.926;4.374;2024-03-22T07:01:12;11.20;99.90
19999;DHT22;10160;50.926;4.374;2024-03-22T07:03:37;11.30;99.90
19999;DHT22;10160;50.926;4.374;2024-03-22T07:06:03;11.30;99.90
19999;DHT22;10160;50.926;4.374;2024-03-22T07:08:31;11.20;99.90
19999;DHT22;10160;50.926;4.374;2024-03-22T07:10:56;11.20;99.90
19999;DHT22;10160;50.926;4.374;2024-03-22T07:13:22;11.20;99.90
19999;DHT22;10160;50.926;4.374;2024-03-22T07:15:48;11.20;99.90
19999;DHT22;10160;50.926;4.374;2024-03-22T07:18:14;11.20;99.90
19999;DHT22;10160;50.926;4.374;2024-03-22T07:20:41;11.20;99.90
19999;DHT22;10160;50.926;4.374;2024-03-22T07:23:07;11.20;99.90
19999;DHT22;10160;50.926;4.374;2024-03-22T07:25:33;11.30;99.90
19999;DHT22;10160;50.926;4.374;2024-03-22T07:27:58;11.40;99.90
19999;DHT22;10160;50.926;4.374;2024-03-22T07:30:24;11.40;99.90
19999;DHT22;10160;50.926;4.374;2024-03-22T07:32:50;11.40;99.90
19999;DHT22;10160;50.926;4.374;2024-03-22T07:35:15;11.30;99.90
19999;DHT22;10160;50.926;4.374;2024-03-22T07:37:41;11.30;99.90
19999;DHT22;10160;50.926;4.374;2024-03-22T07:40:07;11.20;99.90
19999;DHT22;10160;50.926;4.374;2024-03-22T07:42:33;11.30;99.90
19999;DHT22;10160;50.926;4.374;2024-03-22T07:44:58;11.30;99.90
19999;DHT22;10160;50.926;4.374;2024-03-22T07:47:24;11.40;99.90
19999;DHT22;10160;50.926;4.374;2024-03-22T07:49:50;11.50;99.90
19999;DHT22;10160;50.926;4.374;2024-03-22T07:52:16;11.50;99.90
19999;DHT22;10160;50.926;4.374;2024-03-22T07:54:42;11.50;99.90
19999;DHT22;10160;50.926;4.374;2024-03-22T07:57:07;11.50;99.90
19999;DHT22;10160;50.926;4.374;2024-03-22T07:59:33;11.60;99.90
19999;DHT22;10160;50.926;4.374;2024-03-22T08:01:58;11.60;99.90
19999;DHT22;10160;50.926;4.374;2024-03-22T08:04:24;11.60;99.90
19999;DHT22;10160;50.926;4.374;2024-03-22T08:06:53;11.60;99.90
19999;DHT22;10160;50.926;4.374;2024-03-22T08:09:18;11.60;99.90
19999;DHT22;10160;50.926;4.374;2024-03-22T08:11:44;11.40;99.90
19999;DHT22;10160;50.926;4.374;2024-03-22T08:14:10;11.30;99.90
19999;DHT22;10160;50.926;4.374;2024-03-22T08:16:36;11.30;99.90
19999;DHT22;10160;50.926;4.374;2024-03-22T08:19:01;11.30;99.90
19999;DHT22;10160;50.926;4.374;2024-03-22T08:21:27;11.40;99.90
19999;DHT22;10160;50.926;4.374;2024-03-22T08:23:53;11.40;99.90
19999;DHT22;10160;50.926;4.374;2024-03-22T08:26:18;11.50;99.90
19999;DHT22;10160;50.926;4.374;2024-03-22T08:28:47;11.40;99.90
19999;DHT22;10160;50.926;4.374;2024-03-22T08:31:13;11.50;99.90
19999;DHT22;10160;50.926;4.374;2024-03-22T08:33:39;11.60;99.90
19999;DHT22;10160;50.926;4.374;2024-03-22T08:36:05;11.70;99.90
19999;DHT22;10160;50.926;4.374;2024-03-22T08:38:31;11.80;99.90
19999;DHT22;10160;50.926;4.374;2024-03-22T08:40:56;12.00;99.90
19999;DHT22;10160;50.926;4.374;2024-03-22T08:43:22;12.10;99.90
19999;DHT22;10160;50.926;4.374;2024-03-22T08:45:51;12.10;99.90
19999;DHT22;10160;50.926;4.374;2024-03-22T08:48:17;11.90;99.90
19999;DHT22;10160;50.926;4.374;2024-03-22T08:50:43;11.90;99.90
19999;DHT22;10160;50.926;4.374;2024-03-22T08:53:09;11.90;99.90
19999;DHT22;10160;50.926;4.374;2024-03-22T08:55:35;11.80;99.90
19999;DHT22;10160;50.926;4.374;2024-03-22T08:58:01;12.00;99.90
19999;DHT22;10160;50.926;4.374;2024-03-22T09:00:26;11.90;99.90
19999;DHT22;10160;50.926;4.374;2024-03-22T09:02:52;11.90;99.90
19999;DHT22;10160;50.926;4.374;2024-03-22T09:05:18;11.90;99.90
19999;DHT22;10160;50.926;4.374;2024-03-22T09:07:44;12.10;99.90
19999;DHT22;10160;50.926;4.374;2024-03-22T09:10:10;12.20;99.90
19999;DHT22;10160;50.926;4.374;2024-03-22T09:12:37;12.30;99.90
19999;DHT22;10160;50.926;4.374;2024-03-22T09:15:03;12.10;99.90
19999;DHT22;10160;50.926;4.374;2024-03-22T09:17:28;12.20;99.90
19999;DHT22;10160;50.926;4.374;2024-03-22T09:19:54;12.30;99.90
19999;DHT22;10160;50.926;4.374;2024-03-22T09:22:20;12.40;99.90
19999;DHT22;10160;50.926;4.374;2024-03-22T09:24:45;12.50;99.90
19999;DHT22;10160;50.926;4.374;2024-03-22T09:27:11;12.40;99.90
19999;DHT22;10160;50.926;4.374;2024-03-22T09:29:37;12.40;99.90
19999;DHT22;10160;50.926;4.374;2024-03-22T09:32:04;12.30;99.90
19999;DHT22;10160;50.926;4.374;2024-03-22T09:34:29;12.30;99.90
19999;DHT22;10160;50.926;4.374;2024-03-22T09:36:56;12.30;99.90
19999;DHT22;10160;50.926;4.374;2024-03-22T09:39:24;12.40;99.90
19999;DHT22;10160;50.926;4.374;2024-03-22T09:41:51;12.50;99.90
19999;DHT22;10160;50.926;4.374;2024-03-22T09:44:18;12.50;99.90
19999;DHT22;10160;50.926;4.374;2024-03-22T09:46:46;12.50;99.90
19999;DHT22;10160;50.926;4.374;2024-03-22T09:49:12;12.50;99.90
19999;DHT22;10160;50.926;4.374;2024-03-22T09:51:39;12.50;99.90
19999;DHT22;10160;50.926;4.374;2024-03-22T09:54:07;12.40;99.90
19999;DHT22;10160;50.926;4.374;2024-03-22T09:56:34;12.50;99.90
19999;DHT22;10160;50.926;4.374;2024-03-22T09:59:00;12.60;99.90
19999;DHT22;10160;50.926;4.374;2024-03-22T10:01:26;12.50;99.90
19999;DHT22;10160;50.926;4.374;2024-03-22T10:03:52;12.50;99.90
19999;DHT22;10160;50.926;4.374;2024-03-22T10:06:19;12.60;99.90
19999;DHT22;10160;50.926;4.374;2024-03-22T10:08:45;12.50;99.90
19999;DHT22;10160;50.926;4.374;2024-03-22T10:11:11;12.60;99.90
19999;DHT22;10160;50.926;4.374;2024-03-22T10:13:37;12.70;99.90
19999;DHT22;10160;50.926;4.374;2024-03-22T10:16:03;12.60;99.90
19999;DHT22;10160;50.926;4.374;2024-03-22T10:18:28;12.60;99.90
19999;DHT22;10160;50.926;4.374;2024-03-22T10:21:17;12.60;99.90
19999;DHT22;10160;50.926;4.374;2024-03-22T10:23:44;12.70;99.90
19999;DHT22;10160;50.926;4.374;2024-03-22T10:26:10;12.70;99.90
19999;DHT22;10160;50.926;4.374;2024-03-22T10:28:35;12.70;99.90
19999;DHT22;10160;50.926;4.374;2024-03-22T10:31:01;12.80;99.90
19999;DHT22;10160;50.926;4.374;2024-03-22T10:33:29;12.60;99.90
19999;DHT22;10160;50.926;4.374;2024-03-22T10:35:55;12.60;99.90
19999;DHT22;10160;50.926;4.374;2024-03-22T10:38:21;12.60;99.90
19999;DHT22;10160;50.926;4.374;2024-03-22T10:40:48;12.70;99.90
19999;DHT22;10160;50.926;4.374;2024-03-22T10:43:15;12.70;99.90
19999;DHT22;10160;50.926;4.374;2024-03-22T10:45:41;12.80;99.90
19999;DHT22;10160;50.926;4.374;2024-03-22T10:48:11;12.90;99.90
19999;DHT22;10160;50.926;4.374;2024-03-22T10:50:41;13.10;99.90
19999;DHT22;10160;50.926;4.374;2024-03-22T10:53:15;13.20;99.90
19999;DHT22;10160;50.926;4.374;2024-03-22T10:55:47;13.20;99.90
19999;DHT22;10160;50.926;4.374;2024-03-22T10:58:23;13.30;99.90
19999;DHT22;10160;50.926;4.374;2024-03-22T11:00:52;13.40;99.90
19999;DHT22;10160;50.926;4.374;2024-03-22T11:03:25;13.50;99.90
19999;DHT22;10160;50.926;4.374;2024-03-22T11:05:56;13.40;99.90
19999;DHT22;10160;50.926;4.374;2024-03-22T11:08:26;13.30;99.90
19999;DHT22;10160;50.926;4.374;2024-03-22T11:10:52;13.20;99.90
19999;DHT22;10160;50.926;4.374;2024-03-22T11:13:19;13.10;99.90
19999;DHT22;10160;50.926;4.374;2024-03-22T11:15:48;13.20;99.90
19999;DHT22;10160;50.926;4.374;2024-03-22T11:18:14;13.20;99.90
19999;DHT22;10160;50.926;4.374;2024-03-22T11:20:39;13.20;99.90
19999;DHT22;10160;50.926;4.374;2024-03-22T11:23:05;13.10;99.90
19999;DHT22;10160;50.926;4.374;2024-03-22T11:25:32;13.10;99.90
19999;DHT22;10160;50.926;4.374;2024-03-22T11:27:59;12.90;99.90
19999;DHT22;10160;50.926;4.374;2024-03-22T11:30:26;13.00;99.90
19999;DHT22;10160;50.926;4.374;2024-03-22T11:32:53;13.00;99.90
19999;DHT22;10160;50.926;4.374;2024-03-22T11:35:19;13.00;99.90
19999;DHT22;10160;50.926;4.374;2024-03-22T11:37:45;13.00;99.90
19999;DHT22;10160;50.926;4.374;2024-03-22T11:40:12;13.00;99.90
19999;DHT22;10160;50.926;4.374;2024-03-22T11:42:52;13.00;99.90
19999;DHT22;10160;50.926;4.374;2024-03-22T11:45:20;13.10;99.90
19999;DHT22;10160;50.926;4.374;2024-03-22T11:47:47;13.10;99.90
19999;DHT22;10160;50.926;4.374;2024-03-22T11:50:13;13.00;99.90
19999;DHT22;10160;50.926;4.374;2024-03-22T11:52:43;13.10;99.90
19999;DHT22;10160;50.926;4.374;2024-03-22T11:55:10;13.00;99.90
19999;DHT22;10160;50.926;4.374;2024-03-22T11:57:36;13.10;99.90
19999;DHT22;10160;50.926;4.374;2024-03-22T12:00:03;13.20;99.90
19999;DHT22;10160;50.926;4.374;2024-03-22T12:02:31;13.20;99.90
19999;DHT22;10160;50.926;4.374;2024-03-22T12:04:57;13.20;99.90
19999;DHT22;10160;50.926;4.374;2024-03-22T12:07:23;13.20;99.90
19999;DHT22;10160;50.926;4.374;2024-03-22T12:09:49;13.20;99.90
19999;DHT22;10160;50.926;4.374;2024-03-22T12:12:15;13.30;99.90
19999;DHT22;10160;50.926;4.374;2024-03-22T12:14:41;13.20;99.90
19999;DHT22;10160;50.926;4.374;2024-03-22T12:17:07;13.10;99.90
19999;DHT22;10160;50.926;4.374;2024-03-22T12:19:33;13.00;99.90
19999;DHT22;10160;50.926;4.374;2024-03-22T12:21:59;13.00;99.90
19999;DHT22;10160;50.926;4.374;2024-03-22T12:24:25;12.90;99.90
19999;DHT22;10160;50.926;4.374;2024-03-22T12:26:51;12.90;99.90
19999;DHT22;10160;50.926;4.374;2024-03-22T12:29:17;12.70;99.90
19999;DHT22;10160;50.926;4.374;2024-03-22T12:31:43;12.80;99.90
19999;DHT22;10160;50.926;4.374;2024-03-22T12:34:09;12.90;99.90
19999;DHT22;10160;50.926;4.374;2024-03-22T12:36:35;13.00;99.90
19999;DHT22;10160;50.926;4.374;2024-03-22T12:39:01;13.00;99.90
19999;DHT22;10160;50.926;4.374;2024-03-22T12:41:27;13.10;99.90
19999;DHT22;10160;50.926;4.374;2024-03-22T12:43:54;13.10;99.90
19999;DHT22;10160;50.926;4.374;2024-03-22T12:46:20;13.20;99.90
19999;DHT22;10160;50.926;4.374;2024-03-22T12:48:46;13.20;99.90
19999;DHT22;10160;50.926;4.374;2024-03-22T12:51:11;13.10;99.90
19999;DHT22;10160;50.926;4.374;2024-03-22T12:53:37;13.10;99.90
19999;DHT22;10160;50.926;4.374;2024-03-22T12:56:03;13.10;99.90
19999;DHT22;10160;50.926;4.374;2024-03-22T12:58:32;12.90;99.90
19999;DHT22;10160;50.926;4.374;2024-03-22T13:00:58;13.00;99.90
19999;DHT22;10160;50.926;4.374;2024-03-22T13:03:26;13.00;99.90
19999;DHT22;10160;50.926;4.374;2024-03-22T13:05:52;12.90;99.90
19999;DHT22;10160;50.926;4.374;2024-03-22T13:08:18;13.10;99.90
19999;DHT22;10160;50.926;4.374;2024-03-22T13:10:45;13.10;99.90
19999;DHT22;10160;50.926;4.374;2024-03-22T13:13:11;13.20;99.90
19999;DHT22;10160;50.926;4.374;2024-03-22T13:15:37;13.10;99.90
19999;DHT22;10160;50.926;4.374;2024-03-22T13:18:06;13.10;99.90
19999;DHT22;10160;50.926;4.374;2024-03-22T13:20:35;13.00;99.90
19999;DHT22;10160;50.926;4.374;2024-03-22T13:23:01;12.80;99.90
19999;DHT22;10160;50.926;4.374;2024-03-22T13:25:27;12.90;99.90
19999;DHT22;10160;50.926;4.374;2024-03-22T13:27:53;12.90;99.90
19999;DHT22;10160;50.926;4.374;2024-03-22T13:30:18;13.00;99.90
19999;DHT22;10160;50.926;4.374;2024-03-22T13:32:44;13.00;99.90
19999;DHT22;10160;50.926;4.374;2024-03-22T13:35:10;13.00;99.90
19999;DHT22;10160;50.926;4.374;2024-03-22T13:37:36;13.00;99.90
19999;DHT22;10160;50.926;4.374;2024-03-22T13:40:02;13.00;99.90
19999;DHT22;10160;50.926;4.374;2024-03-22T13:42:28;13.10;99.90
19999;DHT22;10160;50.926;4.374;2024-03-22T13:44:53;13.20;99.90
19999;DHT22;10160;50.926;4.374;2024-03-22T13:47:19;13.10;99.90
19999;DHT22;10160;50.926;4.374;2024-03-22T13:49:45;13.10;99.90
19999;DHT22;10160;50.926;4.374;2024-03-22T13:52:11;13.30;99.90
19999;DHT22;10160;50.926;4.374;2024-03-22T13:54:37;13.20;99.90
19999;DHT22;10160;50.926;4.374;2024-03-22T13:57:02;13.40;99.90
19999;DHT22;10160;50.926;4.374;2024-03-22T13:59:29;13.20;99.90
19999;DHT22;10160;50.926;4.374;2024-03-22T14:01:55;13.20;99.90
19999;DHT22;10160;50.926;4.374;2024-03-22T14:04:22;13.10;99.90
19999;DHT22;10160;50.926;4.374;2024-03-22T14:06:47;13.00;99.90
19999;DHT22;10160;50.926;4.374;2024-03-22T14:09:13;12.90;99.90
19999;DHT22;10160;50.926;4.374;2024-03-22T14:11:40;13.00;99.90
19999;DHT22;10160;50.926;4.374;2024-03-22T14:14:10;13.10;99.90
19999;DHT22;10160;50.926;4.374;2024-03-22T14:16:39;13.10;99.90
19999;DHT22;10160;50.926;4.374;2024-03-22T14:19:05;13.10;99.90
19999;DHT22;10160;50.926;4.374;2024-03-22T14:21:31;13.10;99.90
19999;DHT22;10160;50.926;4.374;2024-03-22T14:23:56;13.00;99.90
19999;DHT22;10160;50.926;4.374;2024-03-22T14:26:22;12.90;99.90
19999;DHT22;10160;50.926;4.374;2024-03-22T14:28:51;13.00;99.90
19999;DHT22;10160;50.926;4.374;2024-03-22T14:31:18;13.00;99.90
19999;DHT22;10160;50.926;4.374;2024-03-22T14:33:45;12.90;99.90
19999;DHT22;10160;50.926;4.374;2024-03-22T14:36:11;12.80;99.90
19999;DHT22;10160;50.926;4.374;2024-03-22T14:38:38;12.60;99.90
19999;DHT22;10160;50.926;4.374;2024-03-22T14:41:04;12.50;99.90
19999;DHT22;10160;50.926;4.374;2024-03-22T14:43:30;12.60;99.90
19999;DHT22;10160;50.926;4.374;2024-03-22T14:46:01;12.50;99.90
19999;DHT22;10160;50.926;4.374;2024-03-22T14:48:29;12.50;99.90
19999;DHT22;10160;50.926;4.374;2024-03-22T14:50:55;12.70;99.90
19999;DHT22;10160;50.926;4.374;2024-03-22T14:53:22;12.70;99.90
19999;DHT22;10160;50.926;4.374;2024-03-22T14:58:17;12.70;99.90
19999;DHT22;10160;50.926;4.374;2024-03-22T15:00:51;12.60;99.90
19999;DHT22;10160;50.926;4.374;2024-03-22T15:03:17;12.60;99.90
19999;DHT22;10160;50.926;4.374;2024-03-22T15:05:42;12.70;99.90
19999;DHT22;10160;50.926;4.374;2024-03-22T15:08:08;12.60;99.90
19999;DHT22;10160;50.926;4.374;2024-03-22T15:10:33;12.70;99.90
19999;DHT22;10160;50.926;4.374;2024-03-22T15:12:59;12.60;99.90
19999;DHT22;10160;50.926;4.374;2024-03-22T15:15:25;12.60;99.90
19999;DHT22;10160;50.926;4.374;2024-03-22T15:17:51;12.50;99.90
19999;DHT22;10160;50.926;4.374;2024-03-22T15:20:16;12.40;99.90
19999;DHT22;10160;50.926;4.374;2024-03-22T15:22:42;12.40;99.90
19999;DHT22;10160;50.926;4.374;2024-03-22T15:25:08;12.40;99.90